Terminal Aerodrome Forecast
Issued by NWS Jackson, MS

Home | Current Version | Previous Version | Text Only | Print | Product List | Glossary On
Versions: 1 2 3 4 5 6 7 8 9 10 11 12 13 14 15 16 17
000
FTUS44 KJAN 311100
TAFMEI
TAF
KMEI 311126Z 3112/0112 19003KT P6SM BKN080
     FM311600 32007KT P6SM SCT035
     FM311800 33015G25KT P6SM BKN040
     FM010200 34010KT P6SM SKC=

USA.gov is the U.S. government's official web portal to all federal, state and local government web resources and services.